createdAt,value
2023-02-08T00:00:25.748Z,103672.97
2023-02-08T00:03:12.385Z,103677.31
2023-02-08T00:05:39.156Z,103680.63
2023-02-08T00:08:05.772Z,103692.69
2023-02-08T00:10:32.322Z,103680.94
2023-02-08T00:12:58.684Z,103689.09
2023-02-08T00:15:25.214Z,103696.19
2023-02-08T00:17:51.880Z,103697.31
2023-02-08T00:20:18.483Z,103696.53
2023-02-08T00:22:44.788Z,103692.00
2023-02-08T00:25:11.302Z,103695.56
2023-02-08T00:27:37.564Z,103689.28
2023-02-08T00:30:04.714Z,103685.47
2023-02-08T00:32:30.964Z,103688.34
2023-02-08T00:34:57.460Z,103685.50
2023-02-08T00:37:24.177Z,103679.25
2023-02-08T00:39:50.671Z,103687.16
2023-02-08T00:42:16.910Z,103687.38
2023-02-08T00:44:43.382Z,103689.28
2023-02-08T00:47:09.618Z,103680.38
2023-02-08T00:49:36.105Z,103678.56
2023-02-08T00:52:02.314Z,103677.59
2023-02-08T00:54:28.824Z,103680.16
2023-02-08T00:56:54.924Z,103683.72
2023-02-08T00:59:21.742Z,103684.63
2023-02-08T01:01:48.370Z,103684.81
2023-02-08T01:04:15.248Z,103687.41
2023-02-08T01:06:41.412Z,103692.91
2023-02-08T01:09:07.816Z,103689.56
2023-02-08T01:11:34.046Z,103686.00
2023-02-08T01:14:00.538Z,103685.16
2023-02-08T01:16:30.122Z,103693.03
2023-02-08T01:18:58.718Z,103686.75
2023-02-08T01:21:27.951Z,103686.91
2023-02-08T01:23:55.809Z,103694.88
2023-02-08T01:26:23.237Z,103690.41
2023-02-08T01:28:50.545Z,103700.09
2023-02-08T01:31:22.476Z,103702.09
2023-02-08T01:33:49.208Z,103704.69
2023-02-08T01:36:16.458Z,103707.16
2023-02-08T01:38:44.219Z,103703.50
2023-02-08T01:41:26.149Z,103709.66
2023-02-08T01:44:10.979Z,103706.94
2023-02-08T01:46:42.758Z,103704.13
2023-02-08T01:49:17.986Z,103696.34
2023-02-08T01:51:52.738Z,103696.38
2023-02-08T01:54:23.324Z,103699.00
2023-02-08T01:56:51.959Z,103705.44
2023-02-08T01:59:31.213Z,103691.44
2023-02-08T02:01:58.964Z,103695.06
2023-02-08T02:04:27.915Z,103700.41
2023-02-08T02:06:58.768Z,103701.56
2023-02-08T02:09:35.212Z,103699.53
2023-02-08T02:12:02.060Z,103697.84
2023-02-08T02:14:28.710Z,103693.16
2023-02-08T02:16:54.898Z,103700.22
2023-02-08T02:19:31.241Z,103695.78
2023-02-08T02:22:05.868Z,103689.50
2023-02-08T02:24:44.214Z,103697.38
2023-02-08T02:27:24.547Z,103692.75
2023-02-08T02:30:26.559Z,103701.00
2023-02-08T02:33:14.511Z,103685.13
2023-02-08T02:36:15.387Z,103699.19
2023-02-08T02:39:04.003Z,103695.75
2023-02-08T02:42:07.441Z,103700.00
2023-02-08T02:44:51.560Z,103699.28
2023-02-08T02:47:28.679Z,103691.44
2023-02-08T02:50:05.134Z,103692.41
2023-02-08T02:52:42.705Z,103695.78
2023-02-08T02:55:14.897Z,103691.50
2023-02-08T02:57:44.268Z,103699.31
2023-02-08T03:00:17.040Z,103701.97
2023-02-08T03:02:44.379Z,103698.56
2023-02-08T03:05:11.778Z,103693.41
2023-02-08T03:08:08.243Z,103692.59
2023-02-08T03:10:37.347Z,103703.91
2023-02-08T03:13:39.648Z,103708.34
2023-02-08T03:16:31.886Z,103704.78
2023-02-08T03:19:22.054Z,103711.94
2023-02-08T03:21:56.738Z,103718.84
2023-02-08T03:24:38.447Z,103715.25
2023-02-08T03:27:16.992Z,103721.44
2023-02-08T03:29:51.175Z,103724.09
2023-02-08T03:32:23.133Z,103720.56
2023-02-08T03:35:15.088Z,103711.69
2023-02-08T03:37:43.896Z,103723.00
2023-02-08T03:40:20.222Z,103718.72
2023-02-08T03:42:48.242Z,103715.00
2023-02-08T03:45:39.603Z,103720.16
2023-02-08T03:48:09.041Z,103722.88
2023-02-08T03:50:39.532Z,103721.38
2023-02-08T03:53:07.445Z,103725.03
2023-02-08T03:55:36.944Z,103717.88
2023-02-08T03:58:14.692Z,103720.72
2023-02-08T04:00:48.108Z,103722.53
2023-02-08T04:03:20.141Z,103729.63
2023-02-08T04:05:47.183Z,103732.19
2023-02-08T04:08:13.336Z,103733.19
2023-02-08T04:10:40.088Z,103734.16
2023-02-08T04:13:06.590Z,103735.19
2023-02-08T04:15:33.370Z,103728.81
2023-02-08T04:17:59.564Z,103720.78
2023-02-08T04:20:26.035Z,103725.59
2023-02-08T04:22:52.202Z,103728.44
2023-02-08T04:25:18.693Z,103727.44
2023-02-08T04:27:44.986Z,103725.69
2023-02-08T04:30:11.805Z,103727.50
2023-02-08T04:32:37.942Z,103730.13
2023-02-08T04:35:05.017Z,103730.16
2023-02-08T04:37:32.397Z,103729.19
2023-02-08T04:39:58.964Z,103726.44
2023-02-08T04:42:25.542Z,103725.38
2023-02-08T04:44:52.077Z,103728.75
2023-02-08T04:47:18.215Z,103728.72
2023-02-08T04:49:44.607Z,103731.38
2023-02-08T04:52:10.732Z,103730.44
2023-02-08T04:54:38.796Z,103732.34
2023-02-08T04:57:06.850Z,103737.75
2023-02-08T04:59:33.522Z,103726.75
2023-02-08T05:01:59.978Z,103726.75
2023-02-08T05:04:26.730Z,103735.75
2023-02-08T05:06:53.522Z,103729.50
2023-02-08T05:09:19.992Z,103742.09
2023-02-08T05:11:46.246Z,103747.22
2023-02-08T05:14:12.725Z,103746.28
2023-02-08T05:16:38.913Z,103743.63
2023-02-08T05:19:05.402Z,103735.84
2023-02-08T05:21:31.535Z,103747.09
2023-02-08T05:23:58.073Z,103749.03
2023-02-08T05:26:24.299Z,103742.66
2023-02-08T05:28:50.743Z,103748.06
2023-02-08T05:31:20.645Z,103748.19
2023-02-08T05:33:48.837Z,103749.91
2023-02-08T05:36:15.969Z,103739.38
2023-02-08T05:38:42.473Z,103740.19
2023-02-08T05:41:09.051Z,103746.47
2023-02-08T05:43:36.234Z,103740.22
2023-02-08T05:46:02.889Z,103749.88
2023-02-08T05:48:30.554Z,103759.59
2023-02-08T05:50:56.789Z,103743.44
2023-02-08T05:53:23.189Z,103744.31
2023-02-08T05:55:49.549Z,103749.91
2023-02-08T05:58:16.771Z,103750.47
2023-02-08T06:00:43.539Z,103744.50
2023-02-08T06:03:10.430Z,103746.06
2023-02-08T06:05:38.406Z,103748.00
2023-02-08T06:08:05.117Z,103746.47
2023-02-08T06:10:31.249Z,103749.28
2023-02-08T06:12:57.956Z,103751.91
2023-02-08T06:15:24.500Z,103759.84
2023-02-08T06:17:51.041Z,103751.31
2023-02-08T06:20:17.342Z,103757.44
2023-02-08T06:22:43.849Z,103755.59
2023-02-08T06:25:10.029Z,103765.31
2023-02-08T06:27:36.534Z,103770.69
2023-02-08T06:30:03.617Z,103782.28
2023-02-08T06:32:30.783Z,103776.75
2023-02-08T06:34:57.071Z,103778.47
2023-02-08T06:37:24.098Z,103779.50
2023-02-08T06:39:50.657Z,103778.44
2023-02-08T06:42:17.570Z,103780.41
2023-02-08T06:44:54.447Z,103789.00
2023-02-08T06:47:22.948Z,103789.00
2023-02-08T06:49:49.503Z,103791.47
2023-02-08T06:52:16.733Z,103795.22
2023-02-08T06:54:43.115Z,103786.50
2023-02-08T06:57:12.446Z,103795.31
2023-02-08T06:59:39.892Z,103791.50
2023-02-08T07:02:14.814Z,103786.09
2023-02-08T07:04:41.291Z,103789.56
2023-02-08T07:07:08.685Z,103779.81
2023-02-08T07:09:36.223Z,103795.84
2023-02-08T07:12:04.421Z,103794.72
2023-02-08T07:14:35.904Z,103804.53
2023-02-08T07:17:03.182Z,103804.56
2023-02-08T07:19:29.874Z,103804.69
2023-02-08T07:22:05.095Z,103801.16
2023-02-08T07:24:32.429Z,103803.03
2023-02-08T07:26:59.319Z,103801.28
2023-02-08T07:29:25.618Z,103795.94
2023-02-08T07:31:52.436Z,103800.16
2023-02-08T07:34:21.126Z,103812.38
2023-02-08T07:36:48.720Z,103798.63
2023-02-08T07:39:15.061Z,103797.66
2023-02-08T07:41:41.546Z,103792.91
2023-02-08T07:44:07.800Z,103783.25
2023-02-08T07:46:34.632Z,103774.31
2023-02-08T07:49:01.076Z,103780.78
2023-02-08T07:51:27.636Z,103777.16
2023-02-08T07:53:53.902Z,103787.03
2023-02-08T07:56:20.568Z,103785.41
2023-02-08T07:58:47.038Z,103775.38
2023-02-08T08:01:21.905Z,103781.69
2023-02-08T08:03:50.701Z,103777.25
2023-02-08T08:06:19.896Z,103776.56
2023-02-08T08:08:46.840Z,103781.91
2023-02-08T08:11:14.736Z,103775.66
2023-02-08T08:13:40.872Z,103780.09
2023-02-08T08:16:07.860Z,103782.78
2023-02-08T08:18:35.259Z,103771.19
2023-02-08T08:21:02.780Z,103774.81
2023-02-08T08:23:29.618Z,103777.38
2023-02-08T08:25:56.520Z,103764.03
2023-02-08T08:28:23.118Z,103765.72
2023-02-08T08:30:49.870Z,103767.38
2023-02-08T08:33:16.203Z,103771.81
2023-02-08T08:35:43.636Z,103775.34
2023-02-08T08:38:09.956Z,103779.91
2023-02-08T08:40:36.587Z,103785.06
2023-02-08T08:43:03.050Z,103786.78
2023-02-08T08:45:29.876Z,103788.38
2023-02-08T08:47:56.423Z,103788.44
2023-02-08T08:50:22.985Z,103782.41
2023-02-08T08:52:49.277Z,103784.16
2023-02-08T08:55:15.838Z,103786.88
2023-02-08T08:57:42.092Z,103786.03
2023-02-08T09:00:09.273Z,103791.16
2023-02-08T09:02:35.504Z,103792.84
2023-02-08T09:05:04.694Z,103802.72
2023-02-08T09:07:32.216Z,103796.28
2023-02-08T09:09:58.736Z,103799.13
2023-02-08T09:12:24.965Z,103806.19
2023-02-08T09:14:51.446Z,103805.47
2023-02-08T09:17:17.774Z,103798.13
2023-02-08T09:19:44.676Z,103796.25
2023-02-08T09:22:10.899Z,103804.31
2023-02-08T09:24:37.577Z,103803.38
2023-02-08T09:27:03.886Z,103798.97
2023-02-08T09:29:32.045Z,103816.53
2023-02-08T09:31:58.809Z,103817.72
2023-02-08T09:34:25.467Z,103814.03
2023-02-08T09:36:51.693Z,103814.91
2023-02-08T09:39:21.299Z,103810.34
2023-02-08T09:42:20.770Z,103808.38
2023-02-08T09:45:02.736Z,103810.84
2023-02-08T09:47:57.485Z,103804.69
2023-02-08T09:50:47.800Z,103808.25
2023-02-08T09:53:33.554Z,103802.72
2023-02-08T09:56:03.937Z,103807.16
2023-02-08T09:58:45.128Z,103799.16
2023-02-08T10:01:25.336Z,103786.66
2023-02-08T10:03:56.945Z,103796.47
2023-02-08T10:06:23.532Z,103800.81
2023-02-08T10:08:51.728Z,103797.25
2023-02-08T10:11:40.176Z,103791.00
2023-02-08T10:14:20.089Z,103799.84
2023-02-08T10:17:10.493Z,103795.44
2023-02-08T10:19:55.703Z,103787.25
2023-02-08T10:22:46.980Z,103791.72
2023-02-08T10:25:35.487Z,103786.38
2023-02-08T10:28:25.672Z,103780.91
2023-02-08T10:31:00.985Z,103786.59
2023-02-08T10:33:54.516Z,103777.25
2023-02-08T10:36:25.118Z,103769.34
2023-02-08T10:38:55.037Z,103772.75
2023-02-08T10:41:27.588Z,103777.25
2023-02-08T10:44:18.898Z,103771.91
2023-02-08T10:47:00.585Z,103770.00
2023-02-08T10:49:42.092Z,103768.97
2023-02-08T10:52:09.087Z,103764.34
2023-02-08T10:54:35.679Z,103764.44
2023-02-08T10:57:05.714Z,103749.03
2023-02-08T10:59:48.732Z,103759.06
2023-02-08T11:02:27.303Z,103742.19
2023-02-08T11:05:19.474Z,103751.34
2023-02-08T11:07:45.806Z,103750.72
2023-02-08T11:10:14.238Z,103747.34
2023-02-08T11:12:42.875Z,103752.31
2023-02-08T11:15:26.662Z,103746.75
2023-02-08T11:17:56.698Z,103745.94
2023-02-08T11:20:30.911Z,103747.00
2023-02-08T11:22:58.716Z,103741.34
2023-02-08T11:25:37.770Z,103741.91
2023-02-08T11:28:05.333Z,103737.81
2023-02-08T11:30:32.677Z,103737.28
2023-02-08T11:33:17.812Z,103740.50
2023-02-08T11:36:12.557Z,103731.66
2023-02-08T11:38:42.303Z,103737.03
2023-02-08T11:41:15.926Z,103739.84
2023-02-08T11:43:48.500Z,103738.69
2023-02-08T11:46:22.895Z,103738.88
2023-02-08T11:48:51.061Z,103740.06
2023-02-08T11:51:35.648Z,103733.50
2023-02-08T11:54:03.854Z,103733.16
2023-02-08T11:56:34.086Z,103737.81
2023-02-08T11:59:12.117Z,103738.47
2023-02-08T12:01:40.846Z,103733.22
2023-02-08T12:04:10.383Z,103732.22
2023-02-08T12:06:39.958Z,103722.34
2023-02-08T12:09:16.712Z,103731.00
2023-02-08T12:12:19.228Z,103727.78
2023-02-08T12:14:48.540Z,103724.75
2023-02-08T12:17:55.521Z,103715.94
2023-02-08T12:20:39.279Z,103713.72
2023-02-08T12:23:27.137Z,103708.66
2023-02-08T12:26:12.105Z,103709.66
2023-02-08T12:29:29.173Z,103711.16
2023-02-08T12:32:05.726Z,103705.38
2023-02-08T12:34:50.624Z,103702.22
2023-02-08T12:38:02.738Z,103704.25
2023-02-08T12:40:57.327Z,103702.56
2023-02-08T12:43:48.332Z,103693.66
2023-02-08T12:46:33.733Z,103694.19
2023-02-08T12:49:19.172Z,103692.31
2023-02-08T12:51:51.753Z,103699.84
2023-02-08T12:54:29.976Z,103701.00
2023-02-08T12:57:02.434Z,103696.78
2023-02-08T12:59:45.026Z,103699.59
2023-02-08T13:02:26.115Z,103688.72
2023-02-08T13:04:58.840Z,103691.16
2023-02-08T13:07:40.388Z,103689.25
2023-02-08T13:10:32.535Z,103690.72
2023-02-08T13:13:29.350Z,103685.00
2023-02-08T13:16:01.218Z,103691.66
2023-02-08T13:18:35.092Z,103684.31
2023-02-08T13:21:06.958Z,103684.50
2023-02-08T13:23:51.683Z,103687.19
2023-02-08T13:26:26.841Z,103676.09
2023-02-08T13:28:55.934Z,103679.75
2023-02-08T13:31:30.609Z,103674.59
2023-02-08T13:34:03.088Z,103679.25
2023-02-08T13:36:32.895Z,103668.44
2023-02-08T13:39:02.105Z,103663.78
2023-02-08T13:41:31.233Z,103668.28
2023-02-08T13:44:17.240Z,103662.09
2023-02-08T13:46:47.142Z,103663.22
2023-02-08T13:49:41.795Z,103666.13
2023-02-08T13:52:46.416Z,103664.13
2023-02-08T13:55:33.754Z,103657.84
2023-02-08T13:58:15.084Z,103648.06
2023-02-08T14:00:54.290Z,103654.09
2023-02-08T14:03:29.499Z,103654.19
2023-02-08T14:06:05.598Z,103641.59
2023-02-08T14:08:38.341Z,103638.13
2023-02-08T14:11:29.860Z,103637.91
2023-02-08T14:14:06.257Z,103648.63
2023-02-08T14:16:42.369Z,103650.56
2023-02-08T14:19:14.612Z,103642.75
2023-02-08T14:21:46.930Z,103638.34
2023-02-08T14:24:26.555Z,103644.53
2023-02-08T14:27:24.553Z,103644.50
2023-02-08T14:30:06.444Z,103633.97
2023-02-08T14:32:37.390Z,103634.19
2023-02-08T14:35:25.505Z,103626.75
2023-02-08T14:38:23.410Z,103626.44
2023-02-08T14:40:50.783Z,103626.31
2023-02-08T14:43:32.089Z,103624.38
2023-02-08T14:46:36.346Z,103624.59
2023-02-08T14:49:10.437Z,103623.66
2023-02-08T14:51:40.575Z,103623.78
2023-02-08T14:54:32.357Z,103617.69
2023-02-08T14:57:05.913Z,103615.09
2023-02-08T14:59:34.708Z,103624.66
2023-02-08T15:02:11.627Z,103616.97
2023-02-08T15:04:43.420Z,103616.31
2023-02-08T15:07:15.846Z,103620.56
2023-02-08T15:09:45.182Z,103623.16
2023-02-08T15:12:23.499Z,103608.88
2023-02-08T15:14:53.370Z,103613.28
2023-02-08T15:17:29.256Z,103601.72
2023-02-08T15:19:57.001Z,103601.00
2023-02-08T15:22:27.218Z,103605.41
2023-02-08T15:25:23.299Z,103590.28
2023-02-08T15:27:53.461Z,103584.84
2023-02-08T15:30:23.807Z,103579.75
2023-02-08T15:32:50.400Z,103581.63
2023-02-08T15:35:23.428Z,103575.69
2023-02-08T15:37:50.565Z,103568.28
2023-02-08T15:40:27.277Z,103570.25
2023-02-08T15:42:53.931Z,103581.72
2023-02-08T15:45:29.718Z,103568.38
2023-02-08T15:47:57.350Z,103566.16
2023-02-08T15:50:25.038Z,103569.13
2023-02-08T15:53:00.878Z,103555.03
2023-02-08T15:55:34.197Z,103562.84
2023-02-08T15:58:06.573Z,103566.47
2023-02-08T16:00:36.441Z,103563.66
2023-02-08T16:03:08.715Z,103571.03
2023-02-08T16:05:37.415Z,103560.16
2023-02-08T16:08:04.394Z,103562.94
2023-02-08T16:10:36.310Z,103556.75
2023-02-08T16:13:07.591Z,103548.69
2023-02-08T16:15:37.054Z,103558.28
2023-02-08T16:18:03.853Z,103550.19
2023-02-08T16:20:34.189Z,103553.13
2023-02-08T16:23:23.054Z,103551.34
2023-02-08T16:25:50.422Z,103547.09
2023-02-08T16:28:31.617Z,103545.03
2023-02-08T16:31:04.423Z,103553.19
2023-02-08T16:33:32.387Z,103546.84
2023-02-08T16:36:02.814Z,103550.50
2023-02-08T16:38:33.099Z,103550.47
2023-02-08T16:41:11.612Z,103549.81
2023-02-08T16:43:46.549Z,103545.03
2023-02-08T16:46:17.505Z,103550.44
2023-02-08T16:48:48.898Z,103542.59
2023-02-08T16:51:21.146Z,103543.41
2023-02-08T16:53:50.078Z,103544.25
2023-02-08T16:56:17.229Z,103550.72
2023-02-08T16:58:43.684Z,103555.38
2023-02-08T17:01:13.855Z,103548.47
2023-02-08T17:03:41.128Z,103547.44
2023-02-08T17:06:21.180Z,103558.75
2023-02-08T17:08:47.725Z,103559.53
2023-02-08T17:11:14.338Z,103546.06
2023-02-08T17:13:40.566Z,103551.47
2023-02-08T17:16:16.328Z,103560.66
2023-02-08T17:18:42.849Z,103556.31
2023-02-08T17:21:09.618Z,103562.56
2023-02-08T17:23:36.117Z,103558.94
2023-02-08T17:26:04.330Z,103559.19
2023-02-08T17:28:31.314Z,103553.34
2023-02-08T17:30:58.030Z,103548.78
2023-02-08T17:33:25.611Z,103552.28
2023-02-08T17:35:53.269Z,103548.78
2023-02-08T17:38:20.649Z,103540.91
2023-02-08T17:40:47.566Z,103533.59
2023-02-08T17:43:13.955Z,103529.28
2023-02-08T17:45:43.121Z,103537.31
2023-02-08T17:48:12.667Z,103541.25
2023-02-08T17:50:42.240Z,103551.88
2023-02-08T17:53:09.223Z,103542.00
2023-02-08T17:55:35.794Z,103545.53
2023-02-08T17:58:02.163Z,103542.19
2023-02-08T18:00:29.020Z,103538.72
2023-02-08T18:02:55.572Z,103534.16
2023-02-08T18:05:25.250Z,103541.56
2023-02-08T18:07:53.258Z,103542.03
2023-02-08T18:10:20.549Z,103539.41
2023-02-08T18:12:46.826Z,103535.88
2023-02-08T18:15:16.288Z,103537.97
2023-02-08T18:17:43.911Z,103532.00
2023-02-08T18:20:13.621Z,103535.97
2023-02-08T18:22:41.016Z,103531.13
2023-02-08T18:25:08.898Z,103526.00
2023-02-08T18:27:35.410Z,103522.78
2023-02-08T18:30:02.737Z,103518.84
2023-02-08T18:32:29.689Z,103515.22
2023-02-08T18:34:56.473Z,103516.00
2023-02-08T18:37:22.841Z,103525.72
2023-02-08T18:39:51.584Z,103518.84
2023-02-08T18:42:17.932Z,103518.97
2023-02-08T18:44:44.980Z,103518.06
2023-02-08T18:47:11.568Z,103516.13
2023-02-08T18:49:40.111Z,103524.22
2023-02-08T18:52:12.673Z,103524.13
2023-02-08T18:54:39.637Z,103512.59
2023-02-08T18:57:08.859Z,103512.50
2023-02-08T18:59:36.610Z,103509.88
2023-02-08T19:02:04.221Z,103507.22
2023-02-08T19:04:35.194Z,103507.94
2023-02-08T19:07:01.548Z,103503.72
2023-02-08T19:09:28.359Z,103498.44
2023-02-08T19:11:55.332Z,103486.06
2023-02-08T19:14:22.218Z,103492.19
2023-02-08T19:16:48.520Z,103482.28
2023-02-08T19:19:15.552Z,103478.03
2023-02-08T19:21:42.122Z,103477.97
2023-02-08T19:24:14.146Z,103472.53
2023-02-08T19:26:42.416Z,103473.59
2023-02-08T19:29:15.066Z,103461.34
2023-02-08T19:31:42.346Z,103453.91
2023-02-08T19:34:09.847Z,103454.31
2023-02-08T19:36:43.536Z,103448.81
2023-02-08T19:39:14.723Z,103438.25
2023-02-08T19:41:41.940Z,103435.44
2023-02-08T19:44:12.356Z,103430.38
2023-02-08T19:46:38.912Z,103439.19
2023-02-08T19:49:06.589Z,103429.47
2023-02-08T19:51:36.361Z,103435.84
2023-02-08T19:54:06.567Z,103425.25
2023-02-08T19:56:33.838Z,103430.38
2023-02-08T19:59:03.562Z,103420.53
2023-02-08T20:01:32.343Z,103420.63
2023-02-08T20:03:59.831Z,103421.28
2023-02-08T20:06:29.365Z,103420.44
2023-02-08T20:08:56.130Z,103424.97
2023-02-08T20:11:25.331Z,103419.69
2023-02-08T20:13:55.708Z,103411.75
2023-02-08T20:16:22.940Z,103407.38
2023-02-08T20:18:50.413Z,103414.50
2023-02-08T20:21:17.939Z,103402.09
2023-02-08T20:23:45.539Z,103405.66
2023-02-08T20:26:18.422Z,103400.22
2023-02-08T20:28:47.769Z,103402.25
2023-02-08T20:31:17.171Z,103392.53
2023-02-08T20:33:44.011Z,103380.91
2023-02-08T20:36:13.564Z,103388.88
2023-02-08T20:38:41.039Z,103376.94
2023-02-08T20:41:11.079Z,103379.78
2023-02-08T20:43:38.066Z,103381.25
2023-02-08T20:46:06.303Z,103382.13
2023-02-08T20:48:33.557Z,103382.31
2023-02-08T20:51:05.065Z,103381.50
2023-02-08T20:53:33.706Z,103375.19
2023-02-08T20:56:03.766Z,103384.91
2023-02-08T20:58:30.677Z,103384.00
2023-02-08T21:00:57.038Z,103389.34
2023-02-08T21:03:23.754Z,103384.91
2023-02-08T21:05:50.349Z,103391.00
2023-02-08T21:08:17.194Z,103388.41
2023-02-08T21:10:43.613Z,103384.75
2023-02-08T21:13:10.520Z,103380.78
2023-02-08T21:15:42.288Z,103373.44
2023-02-08T21:18:09.825Z,103367.09
2023-02-08T21:20:40.218Z,103357.50
2023-02-08T21:23:07.314Z,103353.94
2023-02-08T21:25:34.229Z,103350.44
2023-02-08T21:28:01.547Z,103349.81
2023-02-08T21:30:27.994Z,103348.59
2023-02-08T21:32:54.471Z,103344.13
2023-02-08T21:35:20.772Z,103348.38
2023-02-08T21:37:47.759Z,103338.66
2023-02-08T21:40:14.402Z,103343.28
2023-02-08T21:42:41.134Z,103338.78
2023-02-08T21:45:09.589Z,103331.75
2023-02-08T21:47:36.757Z,103336.13
2023-02-08T21:50:22.220Z,103316.91
2023-02-08T21:53:07.624Z,103325.78
2023-02-08T21:55:34.309Z,103322.31
2023-02-08T21:58:01.357Z,103321.25
2023-02-08T22:00:27.717Z,103316.91
2023-02-08T22:02:54.538Z,103321.13
2023-02-08T22:05:41.149Z,103326.44
2023-02-08T22:08:08.028Z,103310.66
2023-02-08T22:10:34.585Z,103315.25
2023-02-08T22:13:01.718Z,103309.00
2023-02-08T22:15:29.403Z,103308.34
2023-02-08T22:17:59.168Z,103311.03
2023-02-08T22:20:26.804Z,103307.25
2023-02-08T22:22:55.233Z,103305.44
2023-02-08T22:25:23.169Z,103304.53
2023-02-08T22:27:49.798Z,103297.66
2023-02-08T22:30:17.341Z,103292.38
2023-02-08T22:32:46.161Z,103296.59
2023-02-08T22:35:13.846Z,103293.03
2023-02-08T22:37:40.982Z,103291.41
2023-02-08T22:40:08.442Z,103287.03
2023-02-08T22:42:36.990Z,103290.84
2023-02-08T22:45:03.668Z,103291.75
2023-02-08T22:47:30.247Z,103283.50
2023-02-08T22:49:57.784Z,103288.75
2023-02-08T22:52:25.465Z,103284.28
2023-02-08T22:54:52.337Z,103271.25
2023-02-08T22:57:19.623Z,103265.88
2023-02-08T22:59:46.899Z,103271.88
2023-02-08T23:02:17.429Z,103267.59
2023-02-08T23:04:43.864Z,103272.97
2023-02-08T23:07:10.410Z,103274.69
2023-02-08T23:09:36.639Z,103267.69
2023-02-08T23:12:03.341Z,103269.50
2023-02-08T23:14:48.500Z,103270.19
2023-02-08T23:17:16.757Z,103267.88
2023-02-08T23:19:42.924Z,103268.03
2023-02-08T23:22:09.511Z,103270.38
2023-02-08T23:24:35.637Z,103273.66
2023-02-08T23:27:02.265Z,103266.50
2023-02-08T23:29:28.470Z,103263.81
2023-02-08T23:31:54.978Z,103260.25
2023-02-08T23:34:21.185Z,103262.19
2023-02-08T23:36:47.753Z,103258.75
2023-02-08T23:39:13.853Z,103265.84
2023-02-08T23:41:40.449Z,103256.16
2023-02-08T23:44:06.678Z,103253.38
2023-02-08T23:46:33.308Z,103248.94
2023-02-08T23:48:59.466Z,103246.31
2023-02-08T23:51:26.073Z,103246.41
2023-02-08T23:53:53.890Z,103247.16
2023-02-08T23:56:26.348Z,103239.31
2023-02-08T23:58:55.096Z,103235.94
